Time;durP1;ratioP1;P1;durP2;ratioP2;P2;SDS_P1;SDS_P2;PMS_P1;PMS_P2;Temp;Humidity;BMP_temperature;BMP_pressure;BME280_temperature;BME280_humidity;BME280_pressure;Samples;Min_cycle;Max_cycle;Signal;HPM_P1;HPM_P2
2021/12/02 00:02:20;;;;;;;19.63;5.72;;;8.20;99.90;;;8.02;78.54;99819.72;5052880;28;20123;-72
2021/12/02 00:04:50;;;;;;;19.10;5.22;;;8.00;99.90;;;7.97;77.85;99814.53;5052832;28;20045;-72
2021/12/02 00:07:21;;;;;;;9.50;4.32;;;8.00;99.90;;;8.00;76.03;99817.13;5052523;28;20124;-71
2021/12/02 00:09:50;;;;;;;14.90;4.10;;;7.90;99.90;;;7.95;75.25;99823.34;5052802;28;20044;-71
2021/12/02 00:12:18;;;;;;;8.88;4.18;;;7.90;99.90;;;7.75;74.37;99826.16;5052495;28;20044;-71
2021/12/02 00:14:49;;;;;;;5.07;3.92;;;7.70;99.90;;;7.66;72.70;99804.34;5052727;28;20041;-71
2021/12/02 00:17:22;;;;;;;9.55;4.20;;;7.80;99.90;;;7.70;71.99;99833.25;5053053;28;20073;-72
2021/12/02 00:23:29;;;;;;;9.63;4.03;;;7.80;99.90;;;7.75;73.04;99833.19;5052446;28;20059;-72
2021/12/02 00:25:58;;;;;;;;;;;7.70;99.90;;;7.68;73.49;99826.25;5052594;28;20083;-72
2021/12/02 00:28:30;;;;;;;9.32;3.92;;;7.60;99.90;;;7.69;72.66;99828.84;5052566;28;19920;-72
2021/12/02 00:31:00;;;;;;;9.13;3.95;;;7.60;99.90;;;7.77;72.19;99826.16;5052459;28;20379;-71
2021/12/02 00:33:32;;;;;;;14.48;4.68;;;7.70;99.90;;;7.64;72.46;99812.25;5052312;28;20116;-72
2021/12/02 00:36:02;;;;;;;15.82;5.07;;;7.70;99.90;;;7.61;72.14;99832.44;5052642;28;20534;-71
2021/12/02 00:38:32;;;;;;;11.30;4.72;;;7.60;99.90;;;7.66;71.83;99830.66;5052187;28;20051;-72
2021/12/02 00:41:02;;;;;;;12.95;4.75;;;7.60;99.90;;;7.65;72.05;99829.78;5052335;28;20067;-71
2021/12/02 00:43:31;;;;;;;10.95;4.40;;;7.60;99.90;;;7.61;72.53;99835.94;5051140;28;20056;-71
2021/12/02 00:46:05;;;;;;;15.20;4.93;;;7.60;99.90;;;7.59;72.64;99814.03;5051173;28;20483;-71
2021/12/02 00:48:36;;;;;;;17.60;4.65;;;7.60;99.90;;;7.70;73.08;99822.72;5051125;28;20087;-71
2021/12/02 00:51:07;;;;;;;16.23;4.93;;;7.60;99.90;;;7.89;72.33;99824.28;5051178;28;20044;-71
2021/12/02 00:53:42;;;;;;;;;;;7.70;99.90;;;7.95;72.76;99824.22;5052834;28;20136;-71
2021/12/02 00:56:14;;;;;;;15.70;5.28;;;7.80;99.90;;;7.90;72.45;99830.38;5052447;28;20397;-71
2021/12/02 00:58:48;;;;;;;6.05;4.10;;;7.90;99.90;;;7.73;73.70;99849.00;5052006;28;20441;-71
2021/12/02 01:01:19;;;;;;;9.50;4.30;;;7.70;99.90;;;7.66;75.84;99844.69;5051976;28;20491;-71
2021/12/02 01:03:52;;;;;;;9.32;4.00;;;7.60;99.90;;;7.95;75.92;99837.38;5052078;28;20038;-71
2021/12/02 01:06:21;;;;;;;11.75;4.30;;;7.80;99.90;;;7.88;76.01;99814.63;5053681;28;20498;-71
2021/12/02 01:08:51;;;;;;;11.30;4.70;;;7.90;99.90;;;7.89;76.34;99845.34;5055639;28;20048;-71
2021/12/02 01:11:21;;;;;;;11.35;4.22;;;7.90;99.90;;;7.83;76.71;99833.97;5055965;28;20460;-72
2021/12/02 01:13:50;;;;;;;13.18;4.70;;;7.80;99.90;;;7.76;77.26;99834.94;5056129;28;20049;-72
2021/12/02 01:16:20;;;;;;;10.00;4.82;;;7.60;99.90;;;7.53;76.74;99829.88;5055523;28;20041;-72
2021/12/02 01:18:50;;;;;;;;;;;7.50;99.90;;;5.41;75.42;99473.47;5056191;28;20144;-72
2021/12/02 01:21:21;;;;;;;9.48;4.68;;;7.40;99.90;;;7.70;74.33;99833.25;5055383;28;19932;-72
2021/12/02 01:24:03;;;;;;;11.02;4.30;;;7.60;99.90;;;7.72;74.32;99839.38;5055766;28;20051;-72
2021/12/02 01:26:35;;;;;;;13.07;4.57;;;7.60;99.90;;;7.73;73.05;99835.84;5055687;28;20057;-72
2021/12/02 01:29:05;;;;;;;15.98;5.22;;;7.70;99.90;;;7.64;71.88;99833.31;5055940;28;20084;-71
2021/12/02 01:31:37;;;;;;;9.10;4.43;;;7.60;99.90;;;7.89;71.33;99829.53;5055115;28;20063;-71
2021/12/02 01:34:08;;;;;;;10.75;4.72;;;7.80;99.90;;;7.70;70.88;99800.78;5055553;28;20355;-72
2021/12/02 01:36:41;;;;;;;10.20;4.80;;;7.80;99.90;;;7.92;70.13;99837.41;5054120;28;20081;-72
2021/12/02 01:39:11;;;;;;;13.48;4.70;;;7.80;99.90;;;7.91;70.51;99834.78;5054122;28;20073;-72
2021/12/02 01:41:50;;;;;;;14.32;4.35;;;7.90;99.90;;;7.78;70.06;99828.75;5055168;28;20128;-72
2021/12/02 01:44:21;;;;;;;13.13;4.43;;;7.70;99.90;;;7.91;69.19;99835.66;5055301;28;20048;-71
2021/12/02 01:46:53;;;;;;;13.45;4.30;;;7.90;99.90;;;7.77;70.45;99832.28;5054896;28;20076;-71
2021/12/02 01:49:27;;;;;;;10.35;4.43;;;7.80;99.90;;;7.90;71.95;99846.19;5055219;28;20049;-71
2021/12/02 01:51:57;;;;;;;13.68;4.95;;;7.80;99.90;;;7.80;72.65;99834.88;5054893;28;20056;-72
2021/12/02 01:54:29;;;;;;;11.93;5.05;;;7.80;99.90;;;7.51;73.08;99842.16;5055463;28;20049;-71
2021/12/02 01:57:07;;;;;;;14.23;5.07;;;7.50;99.90;;;7.49;72.13;99843.94;5053758;28;20049;-71
2021/12/02 01:59:39;;;;;;;17.73;4.55;;;7.50;99.90;;;7.44;72.73;99823.81;5054713;28;20060;-71
2021/12/02 02:02:10;;;;;;;13.95;4.60;;;7.40;99.90;;;7.61;71.46;99845.59;5054692;28;20044;-71
2021/12/02 02:04:40;;;;;;;10.57;4.88;;;7.50;99.90;;;7.55;71.01;99838.63;5053661;28;20075;-71
2021/12/02 02:07:14;;;;;;;16.77;5.75;;;7.60;99.90;;;7.62;71.38;99842.97;5054816;28;20055;-71
2021/12/02 02:09:46;;;;;;;14.20;5.13;;;7.60;99.90;;;7.63;71.78;99826.28;5054623;28;20056;-71
2021/12/02 02:12:15;;;;;;;12.52;4.60;;;7.60;99.90;;;8.12;71.12;99855.63;5055082;28;20057;-71
2021/12/02 02:14:45;;;;;;;12.35;4.60;;;7.90;99.90;;;8.02;71.34;99833.78;5054972;28;20049;-71
2021/12/02 02:17:20;;;;;;;9.70;5.27;;;8.10;99.90;;;8.26;72.00;99864.28;5053462;28;20045;-71
2021/12/02 02:19:49;;;;;;;10.98;5.00;;;8.20;99.90;;;8.03;72.06;99826.75;5054305;28;20550;-71
2021/12/02 02:22:22;;;;;;;9.98;4.40;;;8.20;99.90;;;8.35;71.30;99877.34;5054484;28;20041;-71
2021/12/02 02:24:52;;;;;;;17.13;4.22;;;8.30;99.90;;;8.10;70.85;99875.81;5054607;28;20045;-71
2021/12/02 02:27:21;;;;;;;9.68;4.63;;;8.10;99.90;;;7.99;70.69;99867.16;5054489;28;20045;-71
2021/12/02 02:29:51;;;;;;;9.65;4.60;;;8.00;99.90;;;7.88;71.54;99851.47;5054117;28;20462;-71
2021/12/02 02:32:25;;;;;;;8.40;4.80;;;7.90;99.90;;;7.70;72.36;99870.09;5054141;28;20064;-71
2021/12/02 02:34:54;;;;;;;12.38;5.03;;;7.70;99.90;;;7.57;72.13;99867.59;5054405;28;20064;-71
2021/12/02 02:37:29;;;;;;;14.65;5.25;;;7.60;99.90;;;7.30;72.77;99859.00;5054280;28;20064;-71
2021/12/02 02:39:58;;;;;;;16.05;4.50;;;7.40;99.90;;;6.99;72.50;99818.03;5053987;28;20040;-71
2021/12/02 02:42:27;;;;;;;9.57;4.45;;;7.40;99.90;;;7.25;72.33;99831.00;5053946;28;20123;-71
2021/12/02 02:44:56;;;;;;;14.82;4.43;;;7.40;99.90;;;7.42;72.50;99830.84;5053838;28;20045;-71
2021/12/02 02:47:26;;;;;;;9.88;4.75;;;7.50;99.90;;;6.52;72.41;99677.41;5053715;28;20048;-71
2021/12/02 02:49:55;;;;;;;;;;;7.60;99.90;;;7.52;73.17;99880.75;5054535;28;20053;-71
2021/12/02 02:52:25;;;;;;;9.02;4.22;;;7.50;99.90;;;7.55;73.64;99885.13;5053761;28;20282;-71
2021/12/02 02:54:55;;;;;;;9.60;4.43;;;7.50;99.90;;;7.60;72.91;99876.31;5054021;28;20056;-71
2021/12/02 02:57:27;;;;;;;6.65;3.90;;;7.60;99.90;;;7.79;72.93;99883.16;5053826;28;20048;-71
2021/12/02 03:00:03;;;;;;;6.28;4.15;;;7.70;99.90;;;7.87;72.57;99878.69;5053803;28;20045;-71
2021/12/02 03:02:39;;;;;;;10.15;4.28;;;7.80;99.90;;;7.79;72.28;99848.94;5052278;28;20049;-71
2021/12/02 03:05:19;;;;;;;6.68;4.03;;;8.00;99.90;;;7.88;72.17;99877.78;5053514;28;20068;-71
2021/12/02 03:07:53;;;;;;;10.20;4.72;;;7.90;99.90;;;7.64;72.52;99869.25;5053511;28;20055;-71
2021/12/02 03:10:32;;;;;;;9.05;4.10;;;7.70;99.90;;;7.61;72.71;99871.91;5053591;28;20056;-71
2021/12/02 03:13:11;;;;;;;13.65;4.70;;;7.60;99.90;;;7.50;73.81;99868.50;5053682;28;20050;-71
2021/12/02 03:18:29;;;;;;;7.47;4.63;;;7.70;99.90;;;7.96;72.23;99862.81;5053230;28;20287;-71
2021/12/02 03:20:58;;;;;;;12.13;4.47;;;7.80;99.90;;;8.06;71.22;99860.94;5053123;28;20394;-71
2021/12/02 03:23:29;;;;;;;8.50;4.32;;;8.00;99.90;;;8.17;71.00;99857.31;5053124;28;20040;-71
2021/12/02 03:25:57;;;;;;;7.97;4.50;;;8.10;99.90;;;8.00;70.67;99858.38;5053146;28;20048;-71
2021/12/02 03:28:25;;;;;;;9.88;4.22;;;8.00;99.90;;;7.88;70.78;99827.78;5053423;28;20456;-71
2021/12/02 03:30:54;;;;;;;11.25;4.72;;;8.00;99.90;;;7.86;71.55;99855.00;5052922;28;20106;-71
2021/12/02 03:33:22;;;;;;;10.10;4.80;;;7.80;99.90;;;7.93;71.87;99867.22;5053329;28;20072;-71
2021/12/02 03:35:51;;;;;;;10.70;4.82;;;7.80;99.90;;;8.13;71.88;99886.31;5052927;28;20045;-71
2021/12/02 03:38:31;;;;;;;13.65;4.32;;;8.00;99.90;;;7.80;73.05;99874.34;5053458;28;20072;-71
2021/12/02 03:40:59;;;;;;;12.57;4.05;;;7.80;99.90;;;7.82;73.84;99874.38;5052754;28;20045;-71
2021/12/02 03:43:34;;;;;;;11.98;4.18;;;7.70;99.90;;;7.92;73.32;99874.25;5053108;28;20044;-71
2021/12/02 03:46:03;;;;;;;14.18;4.45;;;7.80;99.90;;;8.05;73.32;99877.66;5052852;28;20041;-72
2021/12/02 03:48:32;;;;;;;8.15;4.65;;;7.90;99.90;;;7.91;73.18;99864.63;5053301;28;20040;-71
2021/12/02 03:51:00;;;;;;;9.05;4.88;;;8.00;99.90;;;8.05;73.38;99873.22;5052700;28;20049;-71
2021/12/02 03:53:30;;;;;;;13.88;4.10;;;8.10;99.90;;;7.82;73.63;99858.56;5052985;28;20483;-71
2021/12/02 03:55:59;;;;;;;21.92;5.22;;;8.00;99.90;;;7.53;73.51;99837.78;5052668;28;20069;-71
2021/12/02 03:58:27;;;;;;;12.00;4.63;;;7.80;99.90;;;7.68;73.29;99871.88;5052675;28;20119;-72
2021/12/02 04:00:55;;;;;;;9.40;4.40;;;7.70;99.90;;;7.37;71.86;99870.38;5052709;28;20103;-72
2021/12/02 04:03:24;;;;;;;11.35;4.53;;;7.50;99.90;;;7.61;71.06;99869.28;5053193;28;20041;-71
2021/12/02 04:05:53;;;;;;;11.70;4.88;;;7.50;99.90;;;7.56;70.59;99871.97;5052669;28;20053;-71
2021/12/02 04:08:29;;;;;;;7.07;3.80;;;7.50;99.90;;;7.73;70.34;99875.31;5052564;28;20120;-71
2021/12/02 04:11:13;;;;;;;8.60;4.30;;;7.60;99.90;;;7.57;70.90;99891.25;5051523;28;20422;-71
2021/12/02 04:13:50;;;;;;;14.18;4.80;;;7.50;99.90;;;7.58;72.53;99877.19;5052923;28;20076;-71
2021/12/02 04:16:20;;;;;;;10.48;4.22;;;7.50;99.90;;;7.49;73.38;99879.91;5053086;28;20045;-71
2021/12/02 04:18:49;;;;;;;18.13;4.40;;;7.50;99.90;;;7.38;74.30;99880.00;5052718;28;20056;-71
2021/12/02 04:21:17;;;;;;;13.43;4.93;;;7.40;99.90;;;7.57;73.34;99868.44;5052325;28;20128;-71
2021/12/02 04:23:46;;;;;;;10.68;4.80;;;7.50;99.90;;;7.34;71.29;99875.63;5052398;28;20095;-71
2021/12/02 04:26:17;;;;;;;10.52;4.50;;;7.50;99.90;;;7.50;70.13;99876.38;5052656;28;20037;-71
2021/12/02 04:28:45;;;;;;;5.70;3.80;;;7.50;99.90;;;7.43;69.38;99872.94;5052634;28;20091;-71
2021/12/02 04:31:14;;;;;;;12.82;4.57;;;7.40;99.90;;;7.53;68.83;99874.59;5052306;28;20386;-70
2021/12/02 04:33:42;;;;;;;8.15;4.72;;;7.50;99.90;;;7.49;68.58;99872.88;5052373;28;20065;-71
2021/12/02 04:36:11;;;;;;;13.13;4.80;;;7.50;99.90;;;7.49;68.01;99880.75;5051213;28;20130;-71
2021/12/02 04:38:39;;;;;;;8.48;4.13;;;7.50;99.90;;;7.30;68.54;99872.16;5052273;28;20041;-71
2021/12/02 04:41:08;;;;;;;13.93;4.65;;;7.40;99.90;;;7.45;69.06;99871.19;5053519;28;20045;-71
2021/12/02 04:43:38;;;;;;;10.82;4.47;;;7.40;99.90;;;7.49;68.74;99864.97;5055128;28;20503;-71
2021/12/02 04:46:06;;;;;;;13.70;4.33;;;7.50;99.90;;;7.14;69.80;99872.28;5056123;28;20126;-71
2021/12/02 04:48:35;;;;;;;11.85;4.68;;;7.20;99.90;;;7.15;70.66;99868.75;5056058;28;20370;-71
2021/12/02 04:51:03;;;;;;;12.82;5.30;;;7.10;99.90;;;7.10;71.65;99875.81;5056028;28;20491;-71
2021/12/02 04:53:31;;;;;;;16.73;5.55;;;7.00;99.90;;;6.74;72.12;99811.22;5056037;28;20041;-71
2021/12/02 04:56:00;;;;;;;15.07;4.80;;;7.00;99.90;;;6.99;72.46;99875.00;5055992;28;20049;-71
2021/12/02 04:58:29;;;;;;;15.23;5.53;;;6.90;99.90;;;7.05;72.82;99878.47;5054868;28;20076;-71
2021/12/02 05:00:59;;;;;;;14.93;4.95;;;7.00;99.90;;;6.88;70.76;99874.19;5055712;28;20053;-70
2021/12/02 05:03:28;;;;;;;12.70;4.75;;;6.90;99.90;;;7.14;68.89;99883.66;5056376;28;20047;-70
2021/12/02 05:05:56;;;;;;;18.42;5.35;;;7.00;99.90;;;7.10;66.86;99860.06;5055767;28;20558;-69
2021/12/02 05:08:24;;;;;;;20.13;5.07;;;7.10;99.90;;;7.07;66.97;99879.34;5055696;28;20045;-69
2021/12/02 05:10:53;;;;;;;15.15;4.82;;;7.10;99.90;;;7.11;68.99;99877.56;5055861;28;20045;-71
2021/12/02 05:13:21;;;;;;;19.27;6.18;;;7.10;99.90;;;7.24;69.84;99879.22;5055655;28;20072;-73
2021/12/02 05:15:50;;;;;;;12.73;5.00;;;7.10;99.90;;;7.14;68.81;99888.06;5055778;28;20045;-72
2021/12/02 05:18:20;;;;;;;16.92;5.25;;;7.10;99.90;;;7.18;68.84;99884.53;5055509;28;20398;-73
2021/12/02 05:20:49;;;;;;;17.48;5.15;;;7.20;99.90;;;7.19;68.24;99892.41;5055366;28;20080;-70
2021/12/02 05:23:17;;;;;;;16.63;5.90;;;7.20;99.90;;;6.84;66.84;99869.84;5055950;28;20043;-69
2021/12/02 05:25:46;;;;;;;16.17;5.55;;;7.10;99.90;;;7.08;66.92;99899.47;5055255;28;20124;-70
2021/12/02 05:28:17;;;;;;;12.52;4.50;;;7.00;99.90;;;7.08;66.56;99896.84;5055612;28;20076;-70
2021/12/02 05:30:47;;;;;;;16.00;5.55;;;7.00;99.90;;;7.24;66.95;99900.25;5055282;28;20063;-70
2021/12/02 05:33:15;;;;;;;13.23;4.60;;;7.10;99.90;;;7.05;68.48;99899.50;5055612;28;20075;-70
2021/12/02 05:35:46;;;;;;;10.63;4.70;;;7.10;99.90;;;6.84;68.87;99880.34;5055512;28;20049;-70
2021/12/02 05:38:15;;;;;;;16.65;5.13;;;6.90;99.90;;;6.93;68.05;99885.56;5055210;28;20048;-70
2021/12/02 05:40:43;;;;;;;18.13;5.37;;;6.90;99.90;;;6.92;67.11;99878.56;5055100;28;20068;-70
2021/12/02 05:43:12;;;;;;;16.27;5.20;;;6.90;99.90;;;6.88;67.34;99892.59;5053932;28;20140;-70
2021/12/02 05:45:40;;;;;;;14.70;5.22;;;6.80;99.90;;;6.74;67.41;99870.75;5055257;28;20120;-70
2021/12/02 05:48:08;;;;;;;17.98;5.30;;;6.80;99.90;;;6.86;67.39;99895.22;5055184;28;20069;-70
2021/12/02 05:50:37;;;;;;;10.27;5.17;;;6.80;99.90;;;6.91;66.24;99889.97;5054933;28;20055;-70
2021/12/02 05:53:07;;;;;;;11.85;5.05;;;6.80;99.90;;;7.03;64.09;99895.13;5054807;28;20529;-70
2021/12/02 05:55:35;;;;;;;14.48;5.72;;;7.00;99.90;;;7.05;63.98;99896.00;5054837;28;20076;-70
2021/12/02 05:58:06;;;;;;;19.25;5.53;;;7.00;99.90;;;7.17;63.79;99899.44;5054948;28;20410;-70
2021/12/02 06:00:35;;;;;;;15.00;5.73;;;7.10;99.90;;;6.91;66.75;99866.31;5054765;28;20072;-70
2021/12/02 06:03:03;;;;;;;21.92;6.22;;;7.20;99.90;;;7.24;68.46;99914.28;5054631;28;20037;-70
2021/12/02 06:05:32;;;;;;;23.97;6.13;;;7.20;99.90;;;7.13;70.51;99933.63;5054589;28;20049;-70
2021/12/02 06:08:02;;;;;;;13.20;5.73;;;7.20;99.90;;;6.66;72.02;99915.47;5054644;28;20045;-70
2021/12/02 06:10:33;;;;;;;12.70;4.80;;;7.00;99.90;;;6.45;73.51;99915.53;5054652;28;20041;-70
2021/12/02 06:13:01;;;;;;;12.00;5.15;;;6.80;99.90;;;6.66;74.55;99956.66;5054620;28;20111;-70
2021/12/02 06:15:29;;;;;;;14.77;6.03;;;6.70;99.90;;;6.77;74.38;99962.72;5054770;28;20071;-70
2021/12/02 06:17:58;;;;;;;15.63;5.70;;;6.70;99.90;;;6.11;74.34;99840.41;5054352;28;20079;-71
2021/12/02 06:20:26;;;;;;;14.33;5.27;;;6.80;99.90;;;6.69;74.58;99956.63;5054909;28;20127;-70
2021/12/02 06:22:55;;;;;;;14.13;5.30;;;6.70;99.90;;;6.79;74.31;99937.31;5054405;28;20055;-70
2021/12/02 06:28:12;;;;;;;9.35;4.50;;;7.00;99.90;;;6.93;71.32;99946.03;5054166;28;20041;-70
2021/12/02 06:30:41;;;;;;;15.57;4.80;;;7.00;99.90;;;7.08;71.26;99959.09;5053907;28;20072;-69
2021/12/02 06:33:10;;;;;;;13.90;5.17;;;7.10;99.90;;;7.02;71.02;99959.13;5054202;28;20724;-70
2021/12/02 06:35:39;;;;;;;13.05;5.15;;;7.00;99.90;;;6.78;70.94;99946.94;5054522;28;20045;-71
2021/12/02 06:38:10;;;;;;;12.15;4.70;;;6.90;99.90;;;6.70;70.90;99942.59;5054250;28;20072;-70
2021/12/02 06:40:40;;;;;;;15.13;5.30;;;6.80;99.90;;;6.45;72.07;99948.81;5053821;28;20498;-70
2021/12/02 06:43:10;;;;;;;7.38;4.63;;;6.50;99.90;;;6.32;72.74;99953.22;5054133;28;20444;-70
2021/12/02 06:45:39;;;;;;;14.30;5.30;;;6.30;99.90;;;6.32;73.31;99948.88;5053822;28;20043;-70
2021/12/02 06:48:07;;;;;;;13.27;4.93;;;6.30;99.90;;;6.26;73.84;99951.50;5053779;28;20037;-70
2021/12/02 06:50:37;;;;;;;14.63;5.17;;;6.20;99.90;;;6.15;73.92;99962.88;5053642;28;20060;-70
2021/12/02 06:53:06;;;;;;;15.50;5.57;;;6.20;99.90;;;5.95;75.64;99965.53;5053648;28;20505;-70
2021/12/02 06:55:35;;;;;;;12.20;5.53;;;6.00;99.90;;;5.80;76.81;99941.91;5052522;28;20049;-70
2021/12/02 06:58:03;;;;;;;17.60;5.33;;;5.90;99.90;;;5.79;78.34;99948.00;5053640;28;20033;-71
2021/12/02 07:00:33;;;;;;;13.53;5.13;;;5.80;99.90;;;5.89;78.99;99952.41;5053565;28;20122;-71
2021/12/02 07:03:02;;;;;;;9.85;5.07;;;5.80;99.90;;;5.80;79.62;99964.63;5053495;28;20084;-70
2021/12/02 07:05:32;;;;;;;12.73;4.97;;;5.70;99.90;;;5.81;80.13;99948.88;5053798;28;20041;-70
2021/12/02 07:08:01;;;;;;;12.07;5.43;;;5.70;99.90;;;5.98;79.06;99956.78;5054144;28;20482;-70
2021/12/02 07:10:32;;;;;;;16.17;5.93;;;5.90;99.90;;;6.00;78.66;99958.53;5053395;28;20410;-70
2021/12/02 07:13:00;;;;;;;15.40;5.78;;;5.90;99.90;;;6.12;78.42;99950.63;5052425;28;20053;-70
2021/12/02 07:15:31;;;;;;;18.47;5.10;;;6.00;99.90;;;5.94;77.88;99948.03;5052285;28;20045;-70
2021/12/02 07:18:01;;;;;;;17.67;5.63;;;5.90;99.90;;;6.13;77.38;99955.03;5053228;28;20049;-70
2021/12/02 07:20:34;;;;;;;7.80;4.72;;;6.00;99.90;;;6.34;77.12;99962.88;5053279;28;20098;-71
2021/12/02 07:23:04;;;;;;;11.73;5.03;;;6.10;99.90;;;6.45;76.34;99959.31;5052085;28;20407;-70
2021/12/02 07:25:33;;;;;;;15.23;5.20;;;6.40;99.90;;;6.76;75.79;99987.25;5053056;28;20457;-72
2021/12/02 07:28:02;;;;;;;12.23;5.10;;;6.60;99.90;;;6.90;75.21;99978.44;5053019;28;20068;-71
2021/12/02 07:30:31;;;;;;;13.87;5.20;;;6.80;99.90;;;6.42;74.17;99870.94;5053539;28;20094;-70
2021/12/02 07:33:01;;;;;;;12.80;5.47;;;6.90;99.90;;;7.03;73.59;99968.72;5053538;28;20049;-79
2021/12/02 07:35:30;;;;;;;13.95;5.63;;;6.90;99.90;;;6.94;73.17;99950.38;5053305;28;20041;-74
2021/12/02 07:38:01;;;;;;;14.07;5.95;;;6.90;99.90;;;7.11;72.63;99982.72;5052802;28;20582;-74
2021/12/02 07:40:34;;;;;;;14.00;5.28;;;7.00;99.90;;;6.58;71.65;99898.00;5052860;28;20424;-69
2021/12/02 07:43:05;;;;;;;13.47;4.73;;;7.00;99.90;;;7.08;71.80;99985.38;5052797;28;20041;-67
2021/12/02 07:45:35;;;;;;;16.67;5.43;;;7.00;99.90;;;7.21;71.22;99987.06;5051817;28;20099;-68
2021/12/02 07:48:08;;;;;;;12.88;4.88;;;7.20;99.90;;;7.16;71.63;99991.47;5052802;28;20375;-69
2021/12/02 07:50:37;;;;;;;15.70;5.25;;;7.20;99.90;;;7.19;72.04;99986.19;5053250;28;20052;-69
2021/12/02 07:53:09;;;;;;;7.65;4.10;;;7.20;99.90;;;7.19;72.21;99992.31;5052970;28;20079;-68
2021/12/02 07:55:41;;;;;;;13.90;5.72;;;7.20;99.90;;;7.20;71.92;99994.06;5052756;28;20560;-67
2021/12/02 07:58:11;;;;;;;13.80;5.05;;;7.20;99.90;;;7.09;71.76;99993.25;5052980;28;20091;-68
2021/12/02 08:00:40;;;;;;;14.85;4.93;;;7.10;99.90;;;6.85;71.10;99948.66;5052607;28;20110;-67
2021/12/02 08:03:12;;;;;;;8.98;4.20;;;7.20;99.90;;;7.06;70.81;99981.88;5052786;28;20045;-68
2021/12/02 08:05:42;;;;;;;8.70;4.65;;;7.20;99.90;;;7.30;70.27;100015.94;5052913;28;20041;-67
2021/12/02 08:08:11;;;;;;;12.60;5.27;;;7.20;99.90;;;6.96;69.55;99988.94;5052327;28;20108;-67
2021/12/02 08:10:40;;;;;;;12.80;4.68;;;7.20;99.90;;;7.25;69.13;100031.75;5051300;28;20295;-67
2021/12/02 08:13:08;;;;;;;10.15;4.35;;;7.20;99.90;;;7.34;69.59;100041.34;5052430;28;20059;-67
2021/12/02 08:15:36;;;;;;;14.63;4.97;;;7.30;99.90;;;7.29;69.07;100046.63;5052914;28;20514;-68
2021/12/02 08:18:05;;;;;;;6.68;4.35;;;7.30;99.90;;;7.44;69.46;100040.41;5056875;28;20395;-68
2021/12/02 08:20:36;;;;;;;12.88;4.75;;;7.40;99.90;;;7.52;69.21;100043.00;5056585;28;20072;-71
2021/12/02 08:23:04;;;;;;;9.95;4.47;;;7.40;99.90;;;7.57;69.03;100047.34;5056517;28;20174;-69
2021/12/02 08:25:34;;;;;;;7.65;4.18;;;7.50;99.90;;;7.67;69.11;100059.56;5056685;28;20053;-72
2021/12/02 08:28:03;;;;;;;8.60;4.75;;;7.50;99.90;;;7.99;69.31;100062.00;5056426;28;20045;-69
2021/12/02 08:30:37;;;;;;;10.93;4.15;;;7.80;99.90;;;8.35;69.10;100071.41;5055138;28;20068;-68
2021/12/02 08:33:07;;;;;;;10.52;4.03;;;8.20;99.90;;;8.67;67.75;100078.13;5056889;28;20055;-70
2021/12/02 08:35:37;;;;;;;13.88;4.80;;;8.50;99.90;;;8.94;66.53;100082.28;5056348;28;20545;-70
2021/12/02 08:38:09;;;;;;;9.23;4.30;;;8.80;99.90;;;9.13;65.71;100067.13;5056579;28;20049;-70
2021/12/02 08:40:39;;;;;;;9.93;3.92;;;9.00;99.90;;;9.37;65.15;100037.81;5056622;28;20091;-70
2021/12/02 08:43:10;;;;;;;9.60;4.30;;;9.40;99.90;;;9.99;63.80;100078.25;5056117;28;20041;-71
2021/12/02 08:45:41;;;;;;;8.55;4.25;;;9.80;99.90;;;10.29;62.27;100078.72;5056179;28;20049;-71
2021/12/02 08:48:10;;;;;;;;;;;10.20;99.90;;;9.84;61.11;99946.44;5056439;28;20049;-71
2021/12/02 08:50:40;;;;;;;12.13;4.32;;;10.60;99.90;;;11.06;60.35;100091.47;5055935;28;19920;-71
2021/12/02 08:53:10;;;;;;;6.10;3.90;;;10.90;99.90;;;11.18;57.82;100090.34;5056249;28;20053;-71
2021/12/02 08:55:40;;;;;;;10.40;3.97;;;11.10;99.90;;;11.57;58.29;100100.16;5055942;28;20552;-72
2021/12/02 08:58:09;;;;;;;8.82;3.22;;;11.50;99.90;;;11.71;56.39;100106.91;5055880;28;20318;-71
2021/12/02 09:00:40;;;;;;;10.05;4.03;;;11.70;99.90;;;11.86;55.87;100118.09;5056075;28;20041;-71
2021/12/02 09:03:15;;;;;;;7.00;3.80;;;11.80;99.90;;;12.05;57.39;100107.06;5055810;28;20044;-72
2021/12/02 09:05:46;;;;;;;8.52;3.38;;;12.00;99.90;;;12.09;56.96;100110.50;5056046;28;20052;-71
2021/12/02 09:08:19;;;;;;;6.03;3.40;;;12.00;99.90;;;11.88;56.76;100076.53;5054809;28;20091;-71
2021/12/02 09:10:47;;;;;;;10.32;4.07;;;12.00;99.90;;;12.22;56.44;100093.41;5054652;28;20057;-71
2021/12/02 09:13:16;;;;;;;9.75;3.47;;;12.30;99.90;;;12.45;55.82;100101.69;5054498;28;20399;-72
2021/12/02 09:15:45;;;;;;;3.88;3.10;;;12.50;99.90;;;12.78;55.37;100138.00;5055982;28;20041;-71
2021/12/02 09:18:14;;;;;;;7.18;3.67;;;12.70;99.90;;;12.79;54.37;100150.38;5055741;28;20127;-72
2021/12/02 09:20:43;;;;;;;4.97;3.40;;;12.70;99.90;;;12.53;53.31;100144.81;5055993;28;20130;-72
2021/12/02 09:23:13;;;;;;;6.18;3.20;;;12.60;99.90;;;12.23;53.73;100149.03;5055344;28;20041;-72
2021/12/02 09:25:43;;;;;;;6.90;2.95;;;12.30;99.90;;;11.88;54.76;100150.75;5055676;28;20470;-71
2021/12/02 09:28:12;;;;;;;4.43;3.10;;;11.90;99.90;;;11.59;55.27;100143.38;5055444;28;20128;-72
2021/12/02 09:30:47;;;;;;;5.80;2.97;;;11.60;99.90;;;11.33;56.68;100150.94;5055245;28;20052;-71
2021/12/02 09:33:16;;;;;;;4.30;3.10;;;11.30;99.90;;;10.95;56.85;100149.00;5055293;28;20045;-71
2021/12/02 09:35:45;;;;;;;4.85;3.38;;;10.90;99.90;;;10.74;58.06;100149.38;5053793;28;20094;-71
2021/12/02 09:38:15;;;;;;;5.53;3.70;;;10.70;99.90;;;10.58;59.23;100158.44;5055410;28;20094;-72
2021/12/02 09:40:45;;;;;;;8.00;3.92;;;10.50;99.90;;;10.35;59.93;100153.53;5055122;28;20041;-72
2021/12/02 09:43:14;;;;;;;5.13;3.53;;;10.20;99.90;;;10.13;60.71;100151.19;5055430;28;20045;-72
2021/12/02 09:45:44;;;;;;;5.32;3.40;;;10.00;99.90;;;9.92;61.70;100161.16;5054895;28;20525;-71
2021/12/02 09:48:12;;;;;;;5.95;3.50;;;9.80;99.90;;;10.11;62.60;100166.19;5055051;28;20053;-72
2021/12/02 09:50:52;;;;;;;3.60;3.28;;;9.80;99.90;;;10.62;62.66;100171.59;5054954;28;20049;-72
2021/12/02 09:53:24;;;;;;;4.60;3.17;;;10.30;99.90;;;10.89;61.37;100141.16;5055166;28;20049;-72
2021/12/02 09:56:02;;;;;;;5.43;3.72;;;10.70;99.90;;;11.60;60.75;100175.13;5054822;28;20479;-72
2021/12/02 09:58:30;;;;;;;5.63;3.42;;;11.30;99.90;;;12.28;59.68;100172.81;5054859;28;20406;-72
2021/12/02 10:01:06;;;;;;;5.13;3.20;;;12.00;99.90;;;12.66;57.08;100186.94;5054641;28;20045;-73
2021/12/02 10:03:38;;;;;;;6.10;3.30;;;12.50;99.90;;;12.29;57.13;100186.03;5054751;28;20132;-72
2021/12/02 10:06:09;;;;;;;6.10;3.40;;;12.20;99.90;;;12.36;56.44;100202.69;5054936;28;20049;-72
2021/12/02 10:08:49;;;;;;;4.72;3.08;;;12.10;99.90;;;12.84;56.97;100201.53;5054874;28;20095;-72
2021/12/02 10:11:29;;;;;;;4.45;3.20;;;12.50;99.90;;;13.03;55.57;100202.88;5054613;28;20041;-73
2021/12/02 10:14:15;;;;;;;;;;;12.80;99.90;;;13.06;56.07;100212.53;5055292;28;20093;-72
2021/12/02 10:16:45;;;;;;;10.05;3.83;;;12.90;99.90;;;11.93;56.33;100200.09;5054459;28;19921;-72
2021/12/02 10:19:18;;;;;;;8.05;4.15;;;12.10;99.90;;;11.28;57.70;100211.94;5054380;28;20045;-72
2021/12/02 10:21:53;;;;;;;9.32;3.50;;;11.20;99.90;;;11.01;59.16;100203.59;5054443;28;20433;-72
2021/12/02 10:24:26;;;;;;;11.73;3.85;;;10.90;99.90;;;10.25;60.44;100199.47;5054204;28;20044;-72
2021/12/02 10:26:59;;;;;;;16.48;4.63;;;10.40;99.90;;;9.53;61.87;100164.28;5054487;28;20440;-71
2021/12/02 10:29:47;;;;;;;8.77;4.00;;;9.80;99.90;;;10.00;61.61;100201.56;5054484;28;20049;-72
2021/12/02 10:32:21;;;;;;;8.50;3.63;;;9.80;99.90;;;9.92;60.51;100200.78;5054028;28;20080;-71
2021/12/02 10:34:54;;;;;;;7.35;3.95;;;9.80;99.90;;;9.95;61.39;100203.34;5053910;28;20045;-72
2021/12/02 10:37:25;;;;;;;10.05;3.80;;;9.80;99.90;;;10.02;60.54;100205.06;5054087;28;20045;-71
2021/12/02 10:40:05;;;;;;;6.90;3.75;;;9.90;99.90;;;10.10;60.68;100196.16;5053433;28;20049;-71
2021/12/02 10:42:37;;;;;;;7.33;3.70;;;10.00;99.90;;;10.18;61.05;100211.00;5054283;28;20076;-71
2021/12/02 10:45:08;;;;;;;5.13;3.47;;;10.10;99.90;;;8.90;60.03;100035.72;5053711;28;20041;-71
2021/12/02 10:47:37;;;;;;;5.20;2.95;;;10.10;99.90;;;9.20;62.00;100235.88;5054411;28;20106;-71
2021/12/02 10:50:10;;;;;;;5.60;3.70;;;9.40;99.90;;;9.55;62.17;100246.09;5053993;28;20103;-72